sensor_id;sensor_type;location;lat;lon;timestamp;temperature;humidity
22006;DHT22;11167;46.988;15.470;2023-07-29T00:00:22;24.20;76.30
22006;DHT22;11167;46.988;15.470;2023-07-29T00:02:23;24.20;76.20
22006;DHT22;11167;46.988;15.470;2023-07-29T00:04:24;24.20;76.20
22006;DHT22;11167;46.988;15.470;2023-07-29T00:06:26;24.20;76.20
22006;DHT22;11167;46.988;15.470;2023-07-29T00:08:27;24.10;76.20
22006;DHT22;11167;46.988;15.470;2023-07-29T00:10:30;24.10;76.20
22006;DHT22;11167;46.988;15.470;2023-07-29T00:12:31;24.10;76.20
22006;DHT22;11167;46.988;15.470;2023-07-29T00:14:32;24.10;76.20
22006;DHT22;11167;46.988;15.470;2023-07-29T00:16:33;24.00;76.10
22006;DHT22;11167;46.988;15.470;2023-07-29T00:18:35;24.00;76.40
22006;DHT22;11167;46.988;15.470;2023-07-29T00:20:36;24.00;76.20
22006;DHT22;11167;46.988;15.470;2023-07-29T00:22:40;24.00;76.20
22006;DHT22;11167;46.988;15.470;2023-07-29T00:24:41;24.00;76.20
22006;DHT22;11167;46.988;15.470;2023-07-29T00:26:42;24.00;76.20
22006;DHT22;11167;46.988;15.470;2023-07-29T00:28:43;24.00;76.20
22006;DHT22;11167;46.988;15.470;2023-07-29T00:30:44;24.00;75.40
22006;DHT22;11167;46.988;15.470;2023-07-29T00:32:45;23.90;76.20
22006;DHT22;11167;46.988;15.470;2023-07-29T00:34:46;23.90;76.10
22006;DHT22;11167;46.988;15.470;2023-07-29T00:36:49;23.90;76.90
22006;DHT22;11167;46.988;15.470;2023-07-29T00:38:50;23.90;76.20
22006;DHT22;11167;46.988;15.470;2023-07-29T00:40:51;23.90;76.10
22006;DHT22;11167;46.988;15.470;2023-07-29T00:42:57;23.80;76.10
22006;DHT22;11167;46.988;15.470;2023-07-29T00:44:59;23.80;76.10
22006;DHT22;11167;46.988;15.470;2023-07-29T00:47:02;23.80;76.10
22006;DHT22;11167;46.988;15.470;2023-07-29T00:49:09;23.80;76.10
22006;DHT22;11167;46.988;15.470;2023-07-29T00:51:11;23.80;76.10
22006;DHT22;11167;46.988;15.470;2023-07-29T00:53:31;23.80;76.10
22006;DHT22;11167;46.988;15.470;2023-07-29T00:55:33;23.70;76.00
22006;DHT22;11167;46.988;15.470;2023-07-29T00:57:35;23.70;76.10
22006;DHT22;11167;46.988;15.470;2023-07-29T00:59:36;23.70;76.10
22006;DHT22;11167;46.988;15.470;2023-07-29T01:01:38;23.70;76.10
22006;DHT22;11167;46.988;15.470;2023-07-29T01:03:41;23.70;76.10
22006;DHT22;11167;46.988;15.470;2023-07-29T01:05:59;23.70;76.10
22006;DHT22;11167;46.988;15.470;2023-07-29T01:08:17;23.60;76.00
22006;DHT22;11167;46.988;15.470;2023-07-29T01:12:45;23.60;76.00
22006;DHT22;11167;46.988;15.470;2023-07-29T01:15:15;23.60;76.00
22006;DHT22;11167;46.988;15.470;2023-07-29T01:17:15;23.50;76.10
22006;DHT22;11167;46.988;15.470;2023-07-29T01:19:32;23.50;76.00
22006;DHT22;11167;46.988;15.470;2023-07-29T01:21:29;23.50;76.10
22006;DHT22;11167;46.988;15.470;2023-07-29T01:23:32;23.50;76.00
22006;DHT22;11167;46.988;15.470;2023-07-29T01:25:34;23.50;76.20
22006;DHT22;11167;46.988;15.470;2023-07-29T01:27:35;23.50;76.10
22006;DHT22;11167;46.988;15.470;2023-07-29T01:29:36;23.40;76.00
22006;DHT22;11167;46.988;15.470;2023-07-29T01:31:42;23.40;76.00
22006;DHT22;11167;46.988;15.470;2023-07-29T01:33:48;23.40;76.00
22006;DHT22;11167;46.988;15.470;2023-07-29T01:36:01;23.40;76.00
22006;DHT22;11167;46.988;15.470;2023-07-29T01:38:11;23.40;76.00
22006;DHT22;11167;46.988;15.470;2023-07-29T01:40:13;23.40;76.00
22006;DHT22;11167;46.988;15.470;2023-07-29T01:42:15;23.40;76.10
22006;DHT22;11167;46.988;15.470;2023-07-29T01:44:17;23.30;76.00
22006;DHT22;11167;46.988;15.470;2023-07-29T01:46:19;23.30;76.00
22006;DHT22;11167;46.988;15.470;2023-07-29T01:48:20;23.30;76.00
22006;DHT22;11167;46.988;15.470;2023-07-29T01:50:22;23.30;76.00
22006;DHT22;11167;46.988;15.470;2023-07-29T01:52:23;23.20;76.00
22006;DHT22;11167;46.988;15.470;2023-07-29T01:54:24;23.30;76.00
22006;DHT22;11167;46.988;15.470;2023-07-29T01:56:26;23.30;76.00
22006;DHT22;11167;46.988;15.470;2023-07-29T01:58:27;23.20;76.00
22006;DHT22;11167;46.988;15.470;2023-07-29T02:00:29;23.20;76.00
22006;DHT22;11167;46.988;15.470;2023-07-29T02:02:30;23.20;76.10
22006;DHT22;11167;46.988;15.470;2023-07-29T02:04:32;23.20;76.10
22006;DHT22;11167;46.988;15.470;2023-07-29T02:06:35;23.20;76.90
22006;DHT22;11167;46.988;15.470;2023-07-29T02:08:38;23.20;76.10
22006;DHT22;11167;46.988;15.470;2023-07-29T02:10:41;23.10;76.00
22006;DHT22;11167;46.988;15.470;2023-07-29T02:12:44;23.10;76.00
22006;DHT22;11167;46.988;15.470;2023-07-29T02:15:06;23.10;76.00
22006;DHT22;11167;46.988;15.470;2023-07-29T02:17:07;23.00;75.90
22006;DHT22;11167;46.988;15.470;2023-07-29T02:19:29;23.10;76.10
22006;DHT22;11167;46.988;15.470;2023-07-29T02:21:32;23.00;76.00
22006;DHT22;11167;46.988;15.470;2023-07-29T02:23:33;23.10;76.20
22006;DHT22;11167;46.988;15.470;2023-07-29T02:25:37;23.00;76.10
22006;DHT22;11167;46.988;15.470;2023-07-29T02:27:40;23.00;75.50
22006;DHT22;11167;46.988;15.470;2023-07-29T02:30:01;23.00;76.10
22006;DHT22;11167;46.988;15.470;2023-07-29T02:32:03;23.00;76.00
22006;DHT22;11167;46.988;15.470;2023-07-29T02:34:04;23.00;76.10
22006;DHT22;11167;46.988;15.470;2023-07-29T02:36:07;23.00;76.10
22006;DHT22;11167;46.988;15.470;2023-07-29T02:38:08;23.00;76.10
22006;DHT22;11167;46.988;15.470;2023-07-29T02:40:11;22.90;76.10
22006;DHT22;11167;46.988;15.470;2023-07-29T02:42:12;22.90;76.10
22006;DHT22;11167;46.988;15.470;2023-07-29T02:44:33;22.90;76.10
22006;DHT22;11167;46.988;15.470;2023-07-29T02:46:34;22.80;76.10
22006;DHT22;11167;46.988;15.470;2023-07-29T02:48:35;22.80;76.00
22006;DHT22;11167;46.988;15.470;2023-07-29T02:50:37;22.80;76.10
22006;DHT22;11167;46.988;15.470;2023-07-29T02:52:39;22.80;76.10
22006;DHT22;11167;46.988;15.470;2023-07-29T02:54:40;22.80;76.10
22006;DHT22;11167;46.988;15.470;2023-07-29T02:56:42;22.80;76.00
22006;DHT22;11167;46.988;15.470;2023-07-29T02:58:45;22.80;76.10
22006;DHT22;11167;46.988;15.470;2023-07-29T03:00:46;22.80;76.30
22006;DHT22;11167;46.988;15.470;2023-07-29T03:02:50;22.70;76.10
22006;DHT22;11167;46.988;15.470;2023-07-29T03:04:51;22.70;76.10
22006;DHT22;11167;46.988;15.470;2023-07-29T03:06:56;22.70;76.10
22006;DHT22;11167;46.988;15.470;2023-07-29T03:08:57;22.70;76.10
22006;DHT22;11167;46.988;15.470;2023-07-29T03:11:04;22.70;76.40
22006;DHT22;11167;46.988;15.470;2023-07-29T03:13:02;22.60;76.10
22006;DHT22;11167;46.988;15.470;2023-07-29T03:15:05;22.60;76.10
22006;DHT22;11167;46.988;15.470;2023-07-29T03:17:08;22.60;76.20
22006;DHT22;11167;46.988;15.470;2023-07-29T03:19:10;22.60;76.30
22006;DHT22;11167;46.988;15.470;2023-07-29T03:21:11;22.60;76.10
22006;DHT22;11167;46.988;15.470;2023-07-29T03:23:12;22.60;76.10
22006;DHT22;11167;46.988;15.470;2023-07-29T03:25:14;22.60;76.20
22006;DHT22;11167;46.988;15.470;2023-07-29T03:27:16;22.60;76.30
22006;DHT22;11167;46.988;15.470;2023-07-29T03:29:18;22.50;76.10
22006;DHT22;11167;46.988;15.470;2023-07-29T03:31:19;22.50;76.10
22006;DHT22;11167;46.988;15.470;2023-07-29T03:33:20;22.50;76.20
22006;DHT22;11167;46.988;15.470;2023-07-29T03:35:21;22.50;76.10
22006;DHT22;11167;46.988;15.470;2023-07-29T03:37:22;22.50;76.10
22006;DHT22;11167;46.988;15.470;2023-07-29T03:39:23;22.50;77.00
22006;DHT22;11167;46.988;15.470;2023-07-29T03:41:25;22.50;76.90
22006;DHT22;11167;46.988;15.470;2023-07-29T03:43:26;22.40;76.20
22006;DHT22;11167;46.988;15.470;2023-07-29T03:45:27;22.50;76.20
22006;DHT22;11167;46.988;15.470;2023-07-29T03:47:31;22.40;76.20
22006;DHT22;11167;46.988;15.470;2023-07-29T03:49:32;22.40;76.10
22006;DHT22;11167;46.988;15.470;2023-07-29T03:51:33;22.40;76.60
22006;DHT22;11167;46.988;15.470;2023-07-29T03:53:34;22.40;76.20
22006;DHT22;11167;46.988;15.470;2023-07-29T03:55:36;22.40;76.20
22006;DHT22;11167;46.988;15.470;2023-07-29T03:57:38;22.40;76.20
22006;DHT22;11167;46.988;15.470;2023-07-29T03:59:39;22.40;76.30
22006;DHT22;11167;46.988;15.470;2023-07-29T04:01:46;22.30;76.20
22006;DHT22;11167;46.988;15.470;2023-07-29T04:03:47;22.30;76.20
22006;DHT22;11167;46.988;15.470;2023-07-29T04:05:48;22.30;76.20
22006;DHT22;11167;46.988;15.470;2023-07-29T04:07:49;22.30;75.80
22006;DHT22;11167;46.988;15.470;2023-07-29T04:09:50;22.30;76.20
22006;DHT22;11167;46.988;15.470;2023-07-29T04:11:52;22.30;76.20
22006;DHT22;11167;46.988;15.470;2023-07-29T04:13:55;22.30;76.20
22006;DHT22;11167;46.988;15.470;2023-07-29T04:15:56;22.30;76.20
22006;DHT22;11167;46.988;15.470;2023-07-29T04:17:57;22.20;76.20
22006;DHT22;11167;46.988;15.470;2023-07-29T04:19:58;22.20;76.20
22006;DHT22;11167;46.988;15.470;2023-07-29T04:21:59;22.20;76.20
22006;DHT22;11167;46.988;15.470;2023-07-29T04:24:00;22.20;76.20
22006;DHT22;11167;46.988;15.470;2023-07-29T04:26:02;22.20;76.30
22006;DHT22;11167;46.988;15.470;2023-07-29T04:28:04;22.20;76.40
22006;DHT22;11167;46.988;15.470;2023-07-29T04:30:06;22.20;76.20
22006;DHT22;11167;46.988;15.470;2023-07-29T04:32:07;22.20;76.20
22006;DHT22;11167;46.988;15.470;2023-07-29T04:34:09;22.20;76.20
22006;DHT22;11167;46.988;15.470;2023-07-29T04:36:10;22.20;76.30
22006;DHT22;11167;46.988;15.470;2023-07-29T04:38:11;22.10;76.20
22006;DHT22;11167;46.988;15.470;2023-07-29T04:40:12;22.10;76.20
22006;DHT22;11167;46.988;15.470;2023-07-29T04:42:13;22.10;76.20
22006;DHT22;11167;46.988;15.470;2023-07-29T04:44:14;22.10;76.20
22006;DHT22;11167;46.988;15.470;2023-07-29T04:46:15;22.10;76.30
22006;DHT22;11167;46.988;15.470;2023-07-29T04:48:17;22.10;76.20
22006;DHT22;11167;46.988;15.470;2023-07-29T04:50:18;22.10;76.30
22006;DHT22;11167;46.988;15.470;2023-07-29T04:52:21;22.10;76.30
22006;DHT22;11167;46.988;15.470;2023-07-29T04:54:23;22.00;76.30
22006;DHT22;11167;46.988;15.470;2023-07-29T04:56:24;22.00;76.20
22006;DHT22;11167;46.988;15.470;2023-07-29T04:58:25;22.00;76.30
22006;DHT22;11167;46.988;15.470;2023-07-29T05:00:29;22.00;76.30
22006;DHT22;11167;46.988;15.470;2023-07-29T05:02:30;22.00;76.40
22006;DHT22;11167;46.988;15.470;2023-07-29T05:04:32;22.00;76.30
22006;DHT22;11167;46.988;15.470;2023-07-29T05:06:33;22.00;76.40
22006;DHT22;11167;46.988;15.470;2023-07-29T05:08:34;22.00;76.40
22006;DHT22;11167;46.988;15.470;2023-07-29T05:10:36;22.00;76.40
22006;DHT22;11167;46.988;15.470;2023-07-29T05:12:37;22.00;76.40
22006;DHT22;11167;46.988;15.470;2023-07-29T05:14:38;22.00;76.40
22006;DHT22;11167;46.988;15.470;2023-07-29T05:16:39;22.00;76.60
22006;DHT22;11167;46.988;15.470;2023-07-29T05:18:40;21.90;76.40
22006;DHT22;11167;46.988;15.470;2023-07-29T05:20:41;21.90;76.40
22006;DHT22;11167;46.988;15.470;2023-07-29T05:22:43;21.90;76.40
22006;DHT22;11167;46.988;15.470;2023-07-29T05:24:44;21.90;76.50
22006;DHT22;11167;46.988;15.470;2023-07-29T05:26:46;21.90;76.40
22006;DHT22;11167;46.988;15.470;2023-07-29T05:28:47;21.90;77.10
22006;DHT22;11167;46.988;15.470;2023-07-29T05:30:49;21.90;76.40
22006;DHT22;11167;46.988;15.470;2023-07-29T05:32:50;21.90;76.40
22006;DHT22;11167;46.988;15.470;2023-07-29T05:34:51;21.90;76.40
22006;DHT22;11167;46.988;15.470;2023-07-29T05:36:52;21.80;76.40
22006;DHT22;11167;46.988;15.470;2023-07-29T05:38:53;21.90;76.40
22006;DHT22;11167;46.988;15.470;2023-07-29T05:40:54;21.80;76.40
22006;DHT22;11167;46.988;15.470;2023-07-29T05:42:55;21.90;76.50
22006;DHT22;11167;46.988;15.470;2023-07-29T05:44:57;21.80;76.40
22006;DHT22;11167;46.988;15.470;2023-07-29T05:46:58;21.80;76.40
22006;DHT22;11167;46.988;15.470;2023-07-29T05:49:02;21.80;76.50
22006;DHT22;11167;46.988;15.470;2023-07-29T05:51:04;21.80;76.50
22006;DHT22;11167;46.988;15.470;2023-07-29T05:53:10;21.80;77.10
22006;DHT22;11167;46.988;15.470;2023-07-29T05:55:11;21.80;76.60
22006;DHT22;11167;46.988;15.470;2023-07-29T05:57:12;21.80;76.60
22006;DHT22;11167;46.988;15.470;2023-07-29T05:59:13;21.80;76.60
22006;DHT22;11167;46.988;15.470;2023-07-29T06:01:15;21.80;76.70
22006;DHT22;11167;46.988;15.470;2023-07-29T06:03:16;21.80;76.60
22006;DHT22;11167;46.988;15.470;2023-07-29T06:05:17;21.70;76.50
22006;DHT22;11167;46.988;15.470;2023-07-29T06:07:18;21.80;76.70
22006;DHT22;11167;46.988;15.470;2023-07-29T06:09:20;21.80;76.70
22006;DHT22;11167;46.988;15.470;2023-07-29T06:11:21;21.70;76.50
22006;DHT22;11167;46.988;15.470;2023-07-29T06:13:22;21.70;76.10
22006;DHT22;11167;46.988;15.470;2023-07-29T06:15:23;21.70;76.60
22006;DHT22;11167;46.988;15.470;2023-07-29T06:17:24;21.70;76.60
22006;DHT22;11167;46.988;15.470;2023-07-29T06:19:25;21.70;76.60
22006;DHT22;11167;46.988;15.470;2023-07-29T06:21:26;21.70;76.60
22006;DHT22;11167;46.988;15.470;2023-07-29T06:23:30;21.70;76.60
22006;DHT22;11167;46.988;15.470;2023-07-29T06:25:34;21.70;76.60
22006;DHT22;11167;46.988;15.470;2023-07-29T06:27:37;21.70;76.60
22006;DHT22;11167;46.988;15.470;2023-07-29T06:29:40;21.70;76.60
22006;DHT22;11167;46.988;15.470;2023-07-29T06:31:50;21.70;76.60
22006;DHT22;11167;46.988;15.470;2023-07-29T06:33:54;21.70;76.60
22006;DHT22;11167;46.988;15.470;2023-07-29T06:35:55;21.70;76.60
22006;DHT22;11167;46.988;15.470;2023-07-29T06:37:56;21.70;76.60
22006;DHT22;11167;46.988;15.470;2023-07-29T06:39:57;21.70;76.70
22006;DHT22;11167;46.988;15.470;2023-07-29T06:41:59;21.70;76.70
22006;DHT22;11167;46.988;15.470;2023-07-29T06:44:00;21.70;76.70
22006;DHT22;11167;46.988;15.470;2023-07-29T06:46:01;21.70;76.70
22006;DHT22;11167;46.988;15.470;2023-07-29T06:48:02;21.70;76.70
22006;DHT22;11167;46.988;15.470;2023-07-29T06:50:05;21.70;76.70
22006;DHT22;11167;46.988;15.470;2023-07-29T06:52:06;21.70;76.70
22006;DHT22;11167;46.988;15.470;2023-07-29T06:54:07;21.70;76.70
22006;DHT22;11167;46.988;15.470;2023-07-29T06:56:08;21.70;76.70
22006;DHT22;11167;46.988;15.470;2023-07-29T06:58:10;21.70;76.70
22006;DHT22;11167;46.988;15.470;2023-07-29T07:00:11;21.70;76.70
22006;DHT22;11167;46.988;15.470;2023-07-29T07:02:13;21.70;76.70
22006;DHT22;11167;46.988;15.470;2023-07-29T07:04:14;21.70;77.00
22006;DHT22;11167;46.988;15.470;2023-07-29T07:06:15;21.70;76.70
22006;DHT22;11167;46.988;15.470;2023-07-29T07:08:16;21.70;76.70
22006;DHT22;11167;46.988;15.470;2023-07-29T07:10:18;21.70;76.70
22006;DHT22;11167;46.988;15.470;2023-07-29T07:12:19;21.70;76.80
22006;DHT22;11167;46.988;15.470;2023-07-29T07:14:20;21.70;76.70
22006;DHT22;11167;46.988;15.470;2023-07-29T07:16:21;21.70;76.70
22006;DHT22;11167;46.988;15.470;2023-07-29T07:18:22;21.70;76.80
22006;DHT22;11167;46.988;15.470;2023-07-29T07:20:24;21.60;76.70
22006;DHT22;11167;46.988;15.470;2023-07-29T07:22:25;21.60;76.70
22006;DHT22;11167;46.988;15.470;2023-07-29T07:24:26;21.60;76.70
22006;DHT22;11167;46.988;15.470;2023-07-29T07:26:27;21.60;76.70
22006;DHT22;11167;46.988;15.470;2023-07-29T07:28:28;21.70;76.70
22006;DHT22;11167;46.988;15.470;2023-07-29T07:30:42;21.70;76.70
22006;DHT22;11167;46.988;15.470;2023-07-29T07:32:42;21.70;76.90
22006;DHT22;11167;46.988;15.470;2023-07-29T07:34:43;21.60;76.70
22006;DHT22;11167;46.988;15.470;2023-07-29T07:36:44;21.60;76.70
22006;DHT22;11167;46.988;15.470;2023-07-29T07:38:46;21.70;76.90
22006;DHT22;11167;46.988;15.470;2023-07-29T07:40:54;21.70;76.80
22006;DHT22;11167;46.988;15.470;2023-07-29T07:42:56;21.70;76.80
22006;DHT22;11167;46.988;15.470;2023-07-29T07:44:57;21.70;76.80
22006;DHT22;11167;46.988;15.470;2023-07-29T07:46:58;21.70;76.90
22006;DHT22;11167;46.988;15.470;2023-07-29T07:48:59;21.70;77.00
22006;DHT22;11167;46.988;15.470;2023-07-29T07:51:00;21.70;76.90
22006;DHT22;11167;46.988;15.470;2023-07-29T07:53:01;21.60;76.40
22006;DHT22;11167;46.988;15.470;2023-07-29T07:55:02;21.70;77.10
22006;DHT22;11167;46.988;15.470;2023-07-29T07:57:04;21.70;77.00
22006;DHT22;11167;46.988;15.470;2023-07-29T07:59:05;21.70;77.00
22006;DHT22;11167;46.988;15.470;2023-07-29T08:01:07;21.70;77.00
22006;DHT22;11167;46.988;15.470;2023-07-29T08:03:08;21.70;77.10
22006;DHT22;11167;46.988;15.470;2023-07-29T08:05:10;21.70;77.10
22006;DHT22;11167;46.988;15.470;2023-07-29T08:07:11;21.70;77.10
22006;DHT22;11167;46.988;15.470;2023-07-29T08:09:12;21.70;77.10
22006;DHT22;11167;46.988;15.470;2023-07-29T08:11:13;21.70;77.10
22006;DHT22;11167;46.988;15.470;2023-07-29T08:13:14;21.70;78.00
22006;DHT22;11167;46.988;15.470;2023-07-29T08:15:15;21.70;77.20
22006;DHT22;11167;46.988;15.470;2023-07-29T08:17:16;21.70;77.20
22006;DHT22;11167;46.988;15.470;2023-07-29T08:19:17;21.80;77.40
22006;DHT22;11167;46.988;15.470;2023-07-29T08:21:18;21.80;77.50
22006;DHT22;11167;46.988;15.470;2023-07-29T08:23:19;21.80;77.40
22006;DHT22;11167;46.988;15.470;2023-07-29T08:25:20;21.80;77.40
22006;DHT22;11167;46.988;15.470;2023-07-29T08:27:21;21.80;77.50
22006;DHT22;11167;46.988;15.470;2023-07-29T08:29:22;21.80;77.50
22006;DHT22;11167;46.988;15.470;2023-07-29T08:31:23;21.80;77.50
22006;DHT22;11167;46.988;15.470;2023-07-29T08:33:25;21.80;77.50
22006;DHT22;11167;46.988;15.470;2023-07-29T08:35:26;21.80;77.50
22006;DHT22;11167;46.988;15.470;2023-07-29T08:37:27;21.80;77.50
22006;DHT22;11167;46.988;15.470;2023-07-29T08:39:30;21.80;77.60
22006;DHT22;11167;46.988;15.470;2023-07-29T08:41:45;21.90;77.60
22006;DHT22;11167;46.988;15.470;2023-07-29T08:43:59;21.90;77.70
22006;DHT22;11167;46.988;15.470;2023-07-29T08:45:53;21.90;77.70
22006;DHT22;11167;46.988;15.470;2023-07-29T08:47:57;21.90;77.80
22006;DHT22;11167;46.988;15.470;2023-07-29T08:50:01;21.90;77.80
22006;DHT22;11167;46.988;15.470;2023-07-29T08:52:04;21.90;77.90
22006;DHT22;11167;46.988;15.470;2023-07-29T08:54:06;21.90;77.90
22006;DHT22;11167;46.988;15.470;2023-07-29T08:56:07;21.90;79.10
22006;DHT22;11167;46.988;15.470;2023-07-29T08:58:08;21.90;78.10
22006;DHT22;11167;46.988;15.470;2023-07-29T09:00:11;21.90;78.10
22006;DHT22;11167;46.988;15.470;2023-07-29T09:02:12;22.00;78.20
22006;DHT22;11167;46.988;15.470;2023-07-29T09:04:13;22.00;78.20
22006;DHT22;11167;46.988;15.470;2023-07-29T09:06:16;22.00;78.20
22006;DHT22;11167;46.988;15.470;2023-07-29T09:08:18;22.00;78.20
22006;DHT22;11167;46.988;15.470;2023-07-29T09:10:21;22.00;78.30
22006;DHT22;11167;46.988;15.470;2023-07-29T09:12:25;22.00;78.30
22006;DHT22;11167;46.988;15.470;2023-07-29T09:14:27;22.10;78.30
22006;DHT22;11167;46.988;15.470;2023-07-29T09:16:29;22.10;78.30
22006;DHT22;11167;46.988;15.470;2023-07-29T09:18:31;22.10;78.40
22006;DHT22;11167;46.988;15.470;2023-07-29T09:20:33;22.10;78.30
22006;DHT22;11167;46.988;15.470;2023-07-29T09:22:35;22.10;78.40
22006;DHT22;11167;46.988;15.470;2023-07-29T09:24:36;22.20;78.40
22006;DHT22;11167;46.988;15.470;2023-07-29T09:26:38;22.20;78.40
22006;DHT22;11167;46.988;15.470;2023-07-29T09:28:41;22.20;78.40
22006;DHT22;11167;46.988;15.470;2023-07-29T09:30:45;22.20;78.50
22006;DHT22;11167;46.988;15.470;2023-07-29T09:32:46;22.30;78.60
22006;DHT22;11167;46.988;15.470;2023-07-29T09:34:47;22.30;78.60
22006;DHT22;11167;46.988;15.470;2023-07-29T09:36:50;22.30;78.60
22006;DHT22;11167;46.988;15.470;2023-07-29T09:38:55;22.30;78.60
22006;DHT22;11167;46.988;15.470;2023-07-29T09:40:57;22.30;78.70
22006;DHT22;11167;46.988;15.470;2023-07-29T09:42:59;22.30;78.70
22006;DHT22;11167;46.988;15.470;2023-07-29T09:45:00;22.40;78.80
22006;DHT22;11167;46.988;15.470;2023-07-29T09:47:01;22.40;78.80
22006;DHT22;11167;46.988;15.470;2023-07-29T09:49:06;22.40;78.80
22006;DHT22;11167;46.988;15.470;2023-07-29T09:51:14;22.50;78.90
22006;DHT22;11167;46.988;15.470;2023-07-29T09:53:17;22.50;78.90
22006;DHT22;11167;46.988;15.470;2023-07-29T09:55:22;22.50;78.90
22006;DHT22;11167;46.988;15.470;2023-07-29T09:57:27;22.50;78.80
22006;DHT22;11167;46.988;15.470;2023-07-29T09:59:58;22.50;78.80
22006;DHT22;11167;46.988;15.470;2023-07-29T10:01:57;22.60;78.80
22006;DHT22;11167;46.988;15.470;2023-07-29T10:03:59;22.60;78.90
22006;DHT22;11167;46.988;15.470;2023-07-29T10:06:03;22.60;78.90
22006;DHT22;11167;46.988;15.470;2023-07-29T10:08:06;22.60;78.90
22006;DHT22;11167;46.988;15.470;2023-07-29T10:10:08;22.70;79.00
22006;DHT22;11167;46.988;15.470;2023-07-29T10:12:09;22.70;79.00
22006;DHT22;11167;46.988;15.470;2023-07-29T10:14:11;22.70;79.10
22006;DHT22;11167;46.988;15.470;2023-07-29T10:16:12;22.70;79.10
22006;DHT22;11167;46.988;15.470;2023-07-29T10:18:15;22.80;79.10
22006;DHT22;11167;46.988;15.470;2023-07-29T10:20:16;22.80;79.20
22006;DHT22;11167;46.988;15.470;2023-07-29T10:22:20;22.80;79.20
22006;DHT22;11167;46.988;15.470;2023-07-29T10:24:24;22.90;79.30
22006;DHT22;11167;46.988;15.470;2023-07-29T10:26:28;22.90;79.30
22006;DHT22;11167;46.988;15.470;2023-07-29T10:28:32;22.90;79.30
22006;DHT22;11167;46.988;15.470;2023-07-29T10:30:34;22.90;79.30
22006;DHT22;11167;46.988;15.470;2023-07-29T10:32:35;23.00;79.40
22006;DHT22;11167;46.988;15.470;2023-07-29T10:34:37;23.00;79.40
22006;DHT22;11167;46.988;15.470;2023-07-29T10:36:39;23.00;79.40
22006;DHT22;11167;46.988;15.470;2023-07-29T10:38:41;23.10;79.50
22006;DHT22;11167;46.988;15.470;2023-07-29T10:40:48;23.10;79.60
22006;DHT22;11167;46.988;15.470;2023-07-29T10:43:03;23.10;79.50
22006;DHT22;11167;46.988;15.470;2023-07-29T10:45:18;23.20;79.50
22006;DHT22;11167;46.988;15.470;2023-07-29T10:47:25;23.20;79.50
22006;DHT22;11167;46.988;15.470;2023-07-29T10:49:27;23.20;79.50
22006;DHT22;11167;46.988;15.470;2023-07-29T10:51:34;23.20;79.50
22006;DHT22;11167;46.988;15.470;2023-07-29T10:53:37;23.30;79.50
22006;DHT22;11167;46.988;15.470;2023-07-29T10:55:39;23.30;79.50
22006;DHT22;11167;46.988;15.470;2023-07-29T10:57:43;23.30;79.50
22006;DHT22;11167;46.988;15.470;2023-07-29T10:59:56;23.40;79.60
22006;DHT22;11167;46.988;15.470;2023-07-29T11:01:58;23.40;79.60
22006;DHT22;11167;46.988;15.470;2023-07-29T11:06:25;23.50;79.60
22006;DHT22;11167;46.988;15.470;2023-07-29T11:08:30;23.50;80.40
22006;DHT22;11167;46.988;15.470;2023-07-29T11:10:41;23.50;79.70
22006;DHT22;11167;46.988;15.470;2023-07-29T11:12:44;23.60;79.80
22006;DHT22;11167;46.988;15.470;2023-07-29T11:14:46;23.60;79.80
22006;DHT22;11167;46.988;15.470;2023-07-29T11:16:48;23.60;79.80
22006;DHT22;11167;46.988;15.470;2023-07-29T11:18:50;23.70;80.00
22006;DHT22;11167;46.988;15.470;2023-07-29T11:20:53;23.70;79.90
22006;DHT22;11167;46.988;15.470;2023-07-29T11:23:01;23.70;79.90
22006;DHT22;11167;46.988;15.470;2023-07-29T11:24:59;23.80;80.00
22006;DHT22;11167;46.988;15.470;2023-07-29T11:27:00;23.80;80.00
22006;DHT22;11167;46.988;15.470;2023-07-29T11:29:02;23.80;80.00
22006;DHT22;11167;46.988;15.470;2023-07-29T11:31:03;23.90;80.10
22006;DHT22;11167;46.988;15.470;2023-07-29T11:33:05;23.90;80.10
22006;DHT22;11167;46.988;15.470;2023-07-29T11:35:09;24.00;80.10
22006;DHT22;11167;46.988;15.470;2023-07-29T11:37:11;24.00;80.10
22006;DHT22;11167;46.988;15.470;2023-07-29T11:39:13;24.10;80.20
22006;DHT22;11167;46.988;15.470;2023-07-29T11:41:19;24.10;80.30
22006;DHT22;11167;46.988;15.470;2023-07-29T11:43:19;24.20;80.30
22006;DHT22;11167;46.988;15.470;2023-07-29T11:45:22;24.20;80.30
22006;DHT22;11167;46.988;15.470;2023-07-29T11:47:24;24.20;80.20
22006;DHT22;11167;46.988;15.470;2023-07-29T11:49:25;24.20;80.40
22006;DHT22;11167;46.988;15.470;2023-07-29T11:51:28;24.30;80.40
22006;DHT22;11167;46.988;15.470;2023-07-29T11:53:29;24.30;80.40
22006;DHT22;11167;46.988;15.470;2023-07-29T11:55:33;24.40;80.40
22006;DHT22;11167;46.988;15.470;2023-07-29T11:57:36;24.40;80.40
22006;DHT22;11167;46.988;15.470;2023-07-29T11:59:37;24.40;80.40
22006;DHT22;11167;46.988;15.470;2023-07-29T12:01:38;24.50;80.60
22006;DHT22;11167;46.988;15.470;2023-07-29T12:03:41;24.50;80.60
22006;DHT22;11167;46.988;15.470;2023-07-29T12:05:42;24.60;80.60
22006;DHT22;11167;46.988;15.470;2023-07-29T12:07:44;24.60;80.60
22006;DHT22;11167;46.988;15.470;2023-07-29T12:09:46;24.60;80.70
22006;DHT22;11167;46.988;15.470;2023-07-29T12:11:48;24.70;80.70
22006;DHT22;11167;46.988;15.470;2023-07-29T12:13:49;24.70;80.70
22006;DHT22;11167;46.988;15.470;2023-07-29T12:15:50;24.80;80.80
22006;DHT22;11167;46.988;15.470;2023-07-29T12:17:58;24.80;80.80
22006;DHT22;11167;46.988;15.470;2023-07-29T12:19:57;24.80;80.70
22006;DHT22;11167;46.988;15.470;2023-07-29T12:22:07;24.90;80.80
22006;DHT22;11167;46.988;15.470;2023-07-29T12:24:04;24.90;80.80
22006;DHT22;11167;46.988;15.470;2023-07-29T12:26:05;25.00;80.90
22006;DHT22;11167;46.988;15.470;2023-07-29T12:28:07;25.00;80.90
22006;DHT22;11167;46.988;15.470;2023-07-29T12:30:09;25.00;80.90
22006;DHT22;11167;46.988;15.470;2023-07-29T12:32:11;25.10;81.00
22006;DHT22;11167;46.988;15.470;2023-07-29T12:34:19;25.10;80.90
22006;DHT22;11167;46.988;15.470;2023-07-29T12:36:21;25.10;80.90
22006;DHT22;11167;46.988;15.470;2023-07-29T12:38:22;25.20;81.00
22006;DHT22;11167;46.988;15.470;2023-07-29T12:40:24;25.20;81.00
22006;DHT22;11167;46.988;15.470;2023-07-29T12:42:25;25.20;81.00
22006;DHT22;11167;46.988;15.470;2023-07-29T12:44:32;25.30;81.00
22006;DHT22;11167;46.988;15.470;2023-07-29T12:46:34;25.30;81.00